Time;durP1;ratioP1;P1;durP2;ratioP2;P2;SDS_P1;SDS_P2;PMS_P1;PMS_P2;Temp;Humidity;BMP_temperature;BMP_pressure;BME280_temperature;BME280_humidity;BME280_pressure;Samples;Min_cycle;Max_cycle;Signal;HPM_P1;HPM_P2
2023/12/05 00:01:40;;;;;;;27.85;15.95;;;4.40;75.50;;;;;;4920005;29;20092;-64
2023/12/05 00:04:06;;;;;;;26.52;16.13;;;4.40;75.70;;;;;;4920888;29;20039;-64
2023/12/05 00:06:32;;;;;;;28.27;16.17;;;4.40;75.20;;;;;;4920842;29;20039;-64
2023/12/05 00:08:58;;;;;;;31.02;17.13;;;4.30;75.60;;;;;;4920906;29;20035;-64
2023/12/05 00:11:25;;;;;;;26.45;14.90;;;4.30;76.00;;;;;;4921039;29;20036;-64
2023/12/05 00:13:51;;;;;;;31.73;17.02;;;4.40;76.10;;;;;;4921374;29;20032;-64
2023/12/05 00:16:17;;;;;;;28.88;16.70;;;4.30;76.20;;;;;;4921248;29;20036;-64
2023/12/05 00:18:47;;;;;;;27.83;14.82;;;4.40;76.30;;;;;;4920931;29;20036;-64
2023/12/05 00:21:13;;;;;;;28.30;16.52;;;4.40;76.30;;;;;;4920569;29;20104;-65
2023/12/05 00:23:39;;;;;;;31.30;18.40;;;4.30;76.00;;;;;;4920521;29;20130;-64
2023/12/05 00:26:05;;;;;;;28.13;16.30;;;4.30;76.40;;;;;;4921018;29;20111;-64
2023/12/05 00:28:31;;;;;;;27.75;15.60;;;4.30;76.30;;;;;;4920980;29;20406;-64
2023/12/05 00:30:57;;;;;;;29.02;15.90;;;4.30;76.30;;;;;;4920489;29;20125;-64
2023/12/05 00:33:23;;;;;;;28.45;16.58;;;4.30;76.30;;;;;;4920364;29;20111;-64
2023/12/05 00:35:49;;;;;;;30.63;16.33;;;4.30;76.30;;;;;;4920376;29;20103;-64
2023/12/05 00:38:15;;;;;;;26.10;15.40;;;4.30;76.40;;;;;;4920551;29;20032;-64
2023/12/05 00:40:41;;;;;;;28.27;16.10;;;4.30;76.30;;;;;;4920274;29;20044;-64
2023/12/05 00:43:07;;;;;;;26.95;16.08;;;4.20;76.50;;;;;;4920240;29;20028;-64
2023/12/05 00:45:33;;;;;;;24.55;15.00;;;4.20;76.40;;;;;;4919884;29;20406;-64
2023/12/05 00:47:59;;;;;;;25.63;14.77;;;4.20;76.40;;;;;;4920103;29;20020;-64
2023/12/05 00:50:25;;;;;;;27.15;14.90;;;4.10;76.50;;;;;;4919727;29;20099;-64
2023/12/05 00:52:51;;;;;;;27.55;14.50;;;4.10;76.40;;;;;;4920531;29;20450;-64
2023/12/05 00:55:19;;;;;;;24.73;13.65;;;4.10;76.20;;;;;;4919979;29;20039;-64
2023/12/05 00:57:44;;;;;;;24.70;13.98;;;4.10;76.40;;;;;;4919944;29;20362;-64
2023/12/05 01:00:13;;;;;;;20.70;12.02;;;4.10;76.60;;;;;;4920445;29;20028;-64
2023/12/05 01:02:39;;;;;;;21.70;12.38;;;4.10;76.50;;;;;;4919795;29;20032;-64
2023/12/05 01:05:09;;;;;;;20.63;11.57;;;4.00;76.60;;;;;;4919634;29;20028;-64
2023/12/05 01:07:38;;;;;;;20.52;10.93;;;4.00;76.40;;;;;;4920085;29;20028;-64
2023/12/05 01:10:05;;;;;;;22.48;12.45;;;3.90;76.40;;;;;;4918942;29;20017;-64
2023/12/05 01:12:31;;;;;;;19.83;11.15;;;4.00;76.30;;;;;;4920048;29;20032;-64
2023/12/05 01:14:57;;;;;;;21.02;11.20;;;3.90;76.20;;;;;;4919633;29;20485;-64
2023/12/05 01:17:23;;;;;;;19.73;10.90;;;3.90;76.30;;;;;;4919887;29;20063;-64
2023/12/05 01:19:49;;;;;;;17.08;9.93;;;3.90;76.40;;;;;;4920150;29;20024;-64
2023/12/05 01:22:15;;;;;;;20.90;10.52;;;3.90;76.50;;;;;;4920052;29;20394;-64
2023/12/05 01:24:41;;;;;;;15.93;9.40;;;3.90;76.40;;;;;;4919407;29;20030;-64
2023/12/05 01:27:08;;;;;;;16.75;9.25;;;3.90;76.30;;;;;;4919431;29;20079;-65
2023/12/05 01:29:34;;;;;;;16.38;8.57;;;3.90;76.20;;;;;;4919738;29;20024;-65
2023/12/05 01:32:00;;;;;;;17.65;9.43;;;3.90;76.20;;;;;;4919945;29;20442;-65
2023/12/05 01:34:26;;;;;;;18.13;9.55;;;3.90;76.20;;;;;;4919705;29;20059;-64
2023/12/05 01:36:52;;;;;;;16.88;9.13;;;3.90;76.30;;;;;;4919371;29;20127;-64
2023/12/05 01:39:19;;;;;;;17.63;9.20;;;3.90;76.60;;;;;;4919608;29;20058;-64
2023/12/05 01:41:46;;;;;;;18.58;9.60;;;3.90;76.70;;;;;;4919298;29;20111;-65
2023/12/05 01:44:12;;;;;;;16.48;8.73;;;3.90;76.70;;;;;;4919358;29;20031;-65
2023/12/05 01:46:38;;;;;;;17.58;8.45;;;3.90;76.70;;;;;;4919709;29;20054;-64
2023/12/05 01:49:04;;;;;;;17.90;9.15;;;3.90;76.60;;;;;;4919234;29;20020;-64
2023/12/05 01:51:32;;;;;;;17.35;8.98;;;3.90;76.60;;;;;;4919670;29;20345;-64
2023/12/05 01:53:58;;;;;;;17.95;9.60;;;3.90;76.40;;;;;;4919048;29;20024;-65
2023/12/05 01:56:25;;;;;;;16.38;7.93;;;3.90;76.90;;;;;;4919128;29;20072;-64
2023/12/05 01:58:51;;;;;;;15.70;8.45;;;3.90;76.80;;;;;;4918989;29;20039;-64
2023/12/05 02:01:20;;;;;;;17.17;9.32;;;4.00;76.90;;;;;;4919555;29;20028;-65
2023/12/05 02:03:47;;;;;;;16.02;8.23;;;4.00;76.70;;;;;;4919434;29;20056;-64
2023/12/05 02:06:13;;;;;;;13.65;7.43;;;4.10;76.70;;;;;;4918877;29;20036;-64
2023/12/05 02:08:42;;;;;;;16.90;8.93;;;4.10;76.80;;;;;;4919189;29;20038;-64
2023/12/05 02:11:08;;;;;;;14.90;8.30;;;4.10;76.60;;;;;;4918979;29;20039;-64
2023/12/05 02:13:34;;;;;;;17.70;9.07;;;4.20;76.40;;;;;;4918842;29;20020;-64
2023/12/05 02:16:09;;;;;;;16.05;8.55;;;4.20;76.50;;;;;;4919355;29;20048;-64
2023/12/05 02:18:45;;;;;;;18.38;8.38;;;4.20;76.10;;;;;;4919195;29;20024;-64
2023/12/05 02:21:20;;;;;;;16.98;8.73;;;4.20;76.00;;;;;;4919409;29;20024;-65
2023/12/05 02:24:21;;;;;;;16.17;8.20;;;4.20;76.10;;;;;;4919950;29;20024;-64
2023/12/05 02:27:04;;;;;;;17.88;9.40;;;4.30;76.00;;;;;;4922921;29;20032;-65
2023/12/05 02:29:30;;;;;;;18.27;8.75;;;4.30;75.90;;;;;;4923266;29;20036;-65
2023/12/05 02:31:56;;;;;;;17.50;9.57;;;4.30;76.10;;;;;;4923128;29;20071;-65
2023/12/05 02:34:22;;;;;;;18.85;8.60;;;4.30;75.90;;;;;;4922984;29;20048;-64
2023/12/05 02:37:14;;;;;;;17.23;8.75;;;4.30;76.10;;;;;;4922544;29;20032;-65
2023/12/05 02:39:57;;;;;;;17.52;8.38;;;4.30;75.70;;;;;;4923002;29;20036;-64
2023/12/05 02:42:26;;;;;;;16.13;8.98;;;4.30;75.70;;;;;;4922713;29;20442;-64
2023/12/05 02:44:54;;;;;;;16.65;9.25;;;4.30;76.00;;;;;;4922145;29;20059;-65
2023/12/05 02:47:24;;;;;;;18.20;9.48;;;4.30;75.80;;;;;;4921346;29;20028;-64
2023/12/05 02:49:51;;;;;;;18.48;9.02;;;4.30;75.70;;;;;;4922496;29;20024;-64
2023/12/05 02:52:17;;;;;;;16.13;8.45;;;4.30;75.80;;;;;;4922250;29;20108;-64
2023/12/05 02:54:47;;;;;;;16.77;8.73;;;4.30;76.00;;;;;;4922142;29;20028;-64
2023/12/05 02:57:13;;;;;;;22.15;10.57;;;4.40;75.90;;;;;;4922637;29;20031;-65
2023/12/05 02:59:39;;;;;;;19.00;10.02;;;4.40;76.20;;;;;;4922128;29;20103;-64
2023/12/05 03:02:05;;;;;;;19.60;9.80;;;4.40;76.10;;;;;;4922065;29;20103;-64
2023/12/05 03:04:30;;;;;;;20.23;10.32;;;4.40;76.10;;;;;;4922228;29;20020;-64
2023/12/05 03:06:56;;;;;;;21.92;10.40;;;4.40;76.20;;;;;;4921945;29;20024;-64
2023/12/05 03:09:23;;;;;;;19.67;10.73;;;4.50;76.20;;;;;;4922493;29;20025;-64
2023/12/05 03:11:49;;;;;;;20.55;10.88;;;4.50;76.10;;;;;;4921887;29;20036;-64
2023/12/05 03:14:16;;;;;;;19.08;10.88;;;4.50;76.10;;;;;;4921819;29;20391;-64
2023/12/05 03:16:45;;;;;;;17.35;8.73;;;4.50;76.10;;;;;;4922086;29;20058;-64
2023/12/05 03:19:11;;;;;;;18.35;9.73;;;4.50;75.90;;;;;;4921763;29;20036;-64
2023/12/05 03:21:37;;;;;;;17.63;9.73;;;4.50;76.00;;;;;;4922241;29;20040;-67
2023/12/05 03:24:03;;;;;;;20.90;9.88;;;4.50;75.80;;;;;;4922131;29;20052;-65
2023/12/05 03:26:30;;;;;;;16.08;8.88;;;4.60;75.70;;;;;;4921598;29;20414;-65
2023/12/05 03:28:56;;;;;;;18.45;8.45;;;4.60;75.70;;;;;;4921906;29;20079;-64
2023/12/05 03:31:22;;;;;;;20.17;10.98;;;4.60;75.40;;;;;;4921541;29;20067;-64
2023/12/05 03:33:48;;;;;;;20.77;10.85;;;4.50;75.30;;;;;;4922209;29;20107;-65
2023/12/05 03:36:15;;;;;;;19.02;9.75;;;4.60;75.60;;;;;;4921930;29;20092;-64
2023/12/05 03:38:41;;;;;;;19.42;9.15;;;4.60;75.80;;;;;;4921447;29;20486;-65
2023/12/05 03:41:09;;;;;;;18.10;9.80;;;4.60;75.90;;;;;;4921108;29;20036;-65
2023/12/05 03:43:35;;;;;;;20.15;10.05;;;4.60;75.90;;;;;;4921329;29;20042;-65
2023/12/05 03:46:01;;;;;;;17.98;9.13;;;4.60;75.90;;;;;;4921048;29;20083;-65
2023/12/05 03:48:27;;;;;;;19.38;9.20;;;4.70;76.00;;;;;;4921212;29;20024;-65
2023/12/05 03:50:53;;;;;;;20.05;10.65;;;4.70;75.90;;;;;;4921222;29;20031;-65
2023/12/05 03:53:20;;;;;;;17.52;8.90;;;4.70;75.80;;;;;;4921722;29;20048;-65
2023/12/05 03:55:46;;;;;;;17.70;9.60;;;4.70;75.70;;;;;;4921314;29;20079;-67
2023/12/05 03:58:13;;;;;;;18.38;9.75;;;4.70;75.90;;;;;;4921847;29;20040;-65
2023/12/05 04:00:39;;;;;;;18.02;9.55;;;4.70;75.90;;;;;;4921048;29;20028;-67
2023/12/05 04:03:06;;;;;;;19.00;9.82;;;4.70;75.90;;;;;;4920998;29;20032;-64
2023/12/05 04:05:32;;;;;;;20.98;10.15;;;4.70;76.20;;;;;;4919784;29;20056;-64
2023/12/05 04:07:58;;;;;;;20.25;10.38;;;4.70;76.00;;;;;;4920950;29;20476;-64
2023/12/05 04:10:24;;;;;;;19.85;10.73;;;4.70;76.00;;;;;;4920804;29;20437;-64
2023/12/05 04:12:50;;;;;;;19.67;9.68;;;4.80;76.00;;;;;;4921308;29;20120;-64
2023/12/05 04:15:16;;;;;;;19.48;9.75;;;4.80;75.90;;;;;;4920686;29;20099;-65
2023/12/05 04:17:42;;;;;;;21.30;10.40;;;4.80;76.20;;;;;;4920963;29;20427;-64
2023/12/05 04:20:10;;;;;;;19.98;10.30;;;4.80;76.20;;;;;;4920735;29;20473;-64
2023/12/05 04:22:36;;;;;;;19.23;10.23;;;4.80;76.30;;;;;;4920888;29;20112;-64
2023/12/05 04:25:08;;;;;;;18.17;9.60;;;4.80;76.20;;;;;;4919540;29;20028;-65
2023/12/05 04:27:34;;;;;;;18.10;10.20;;;4.90;76.20;;;;;;4920540;29;20032;-65
2023/12/05 04:30:01;;;;;;;24.88;12.38;;;4.90;76.00;;;;;;4920526;29;20020;-64
2023/12/05 04:32:27;;;;;;;21.88;11.95;;;4.90;76.10;;;;;;5216662;23;20086;-63
2023/12/05 04:34:53;;;;;;;19.13;11.15;;;4.80;75.90;;;;;;4958654;29;20022;-63
2023/12/05 04:37:19;;;;;;;19.25;10.15;;;4.90;76.20;;;;;;4959088;29;20043;-64
2023/12/05 04:39:45;;;;;;;20.33;10.70;;;4.90;76.10;;;;;;4958543;29;20027;-63
2023/12/05 04:42:11;;;;;;;22.75;11.77;;;4.90;76.20;;;;;;4958377;29;20024;-64
2023/12/05 04:44:37;;;;;;;22.17;11.20;;;4.90;76.10;;;;;;4958457;29;20471;-63
2023/12/05 04:47:03;;;;;;;23.27;10.73;;;4.90;76.10;;;;;;4958058;28;20027;-63
2023/12/05 04:49:30;;;;;;;20.30;10.40;;;4.90;76.20;;;;;;4958859;29;20023;-63
2023/12/05 04:51:56;;;;;;;20.50;10.18;;;4.90;76.10;;;;;;4958457;29;20027;-63
2023/12/05 04:54:22;;;;;;;23.85;11.93;;;4.90;76.00;;;;;;4958262;29;20098;-63
2023/12/05 04:56:49;;;;;;;23.08;12.05;;;4.90;76.20;;;;;;4958448;29;20035;-65
2023/12/05 04:59:15;;;;;;;23.00;12.40;;;4.90;76.20;;;;;;4958157;29;20037;-63
2023/12/05 05:01:41;;;;;;;21.98;11.93;;;5.00;76.40;;;;;;4958561;29;20037;-63
2023/12/05 05:04:07;;;;;;;24.40;12.20;;;4.90;76.30;;;;;;4958592;29;20039;-63
2023/12/05 05:06:33;;;;;;;22.20;12.10;;;4.90;76.30;;;;;;4958694;29;20082;-63
2023/12/05 05:08:59;;;;;;;21.70;11.98;;;5.00;76.10;;;;;;4958225;29;20011;-63
2023/12/05 05:11:25;;;;;;;25.27;13.32;;;5.00;76.20;;;;;;4957844;29;20027;-63
2023/12/05 05:13:50;;;;;;;26.13;12.32;;;5.00;76.10;;;;;;4958136;29;20023;-63
2023/12/05 05:16:17;;;;;;;25.20;13.98;;;5.00;76.00;;;;;;4957835;29;20444;-63
2023/12/05 05:18:43;;;;;;;25.20;13.32;;;5.10;76.00;;;;;;4957835;29;20418;-63
2023/12/05 05:21:11;;;;;;;27.02;13.98;;;5.00;76.00;;;;;;4957735;29;20038;-63
2023/12/05 05:23:38;;;;;;;27.98;14.35;;;5.00;75.90;;;;;;4957711;29;20027;-63
2023/12/05 05:26:04;;;;;;;22.75;11.95;;;5.00;76.10;;;;;;4957633;29;20062;-63
2023/12/05 05:28:30;;;;;;;25.15;14.20;;;5.00;75.90;;;;;;4957648;29;20020;-63
2023/12/05 05:30:58;;;;;;;21.23;12.02;;;5.00;76.00;;;;;;4957586;29;20034;-63
2023/12/05 05:33:25;;;;;;;23.70;12.75;;;5.10;75.90;;;;;;4957334;29;20055;-63
2023/12/05 05:35:51;;;;;;;26.40;13.98;;;5.10;75.80;;;;;;4957550;29;20031;-63
2023/12/05 05:38:17;;;;;;;25.90;13.90;;;5.10;75.80;;;;;;4957499;29;20026;-63
2023/12/05 05:41:14;;;;;;;25.42;12.75;;;5.10;75.90;;;;;;4958008;29;20353;-63
2023/12/05 05:43:40;;;;;;;26.48;14.27;;;5.10;75.50;;;;;;4899136;29;20232;-64
2023/12/05 05:46:06;;;;;;;25.98;13.40;;;5.10;75.90;;;;;;4899184;29;20040;-64
2023/12/05 05:48:33;;;;;;;24.38;12.63;;;5.10;75.80;;;;;;4898882;29;20054;-63
2023/12/05 05:50:59;;;;;;;27.33;13.23;;;5.10;75.80;;;;;;4899165;29;20024;-63
2023/12/05 05:53:25;;;;;;;28.13;16.25;;;5.10;75.70;;;;;;4898537;29;20037;-63
2023/12/05 05:55:51;;;;;;;27.45;14.90;;;5.10;75.60;;;;;;4898613;29;20067;-63
2023/12/05 05:58:17;;;;;;;22.98;12.63;;;5.10;75.50;;;;;;4897883;29;20458;-63
2023/12/05 06:00:45;;;;;;;27.38;14.85;;;5.20;75.60;;;;;;4899080;29;20085;-63
2023/12/05 06:03:11;;;;;;;25.80;14.70;;;5.10;75.40;;;;;;4898428;29;20032;-63
2023/12/05 06:05:37;;;;;;;30.42;14.48;;;5.10;75.60;;;;;;4898426;29;20119;-63
2023/12/05 06:08:03;;;;;;;28.98;14.70;;;5.10;75.40;;;;;;4898452;29;20124;-63
2023/12/05 06:10:29;;;;;;;27.85;14.48;;;5.10;75.70;;;;;;4898390;29;20084;-63
2023/12/05 06:12:57;;;;;;;26.90;14.60;;;5.10;75.70;;;;;;4898407;29;20037;-63
2023/12/05 06:15:24;;;;;;;28.80;14.70;;;5.20;75.70;;;;;;4898401;29;20040;-63
2023/12/05 06:17:50;;;;;;;28.42;15.38;;;5.20;75.80;;;;;;4898830;29;20081;-65
2023/12/05 06:20:16;;;;;;;27.70;14.18;;;5.20;76.00;;;;;;4934443;29;20047;-63
2023/12/05 06:22:42;;;;;;;25.58;14.27;;;5.10;75.90;;;;;;4957072;29;20065;-63
2023/12/05 06:25:11;;;;;;;28.15;14.98;;;5.10;75.80;;;;;;4956971;29;20067;-63
2023/12/05 06:27:37;;;;;;;28.10;14.98;;;5.20;75.90;;;;;;4957524;29;20035;-63
2023/12/05 06:30:04;;;;;;;28.83;15.15;;;5.20;76.00;;;;;;4956936;29;20031;-63
2023/12/05 06:32:30;;;;;;;27.17;14.05;;;5.20;75.90;;;;;;4956320;29;20075;-61
2023/12/05 06:34:56;;;;;;;28.17;15.00;;;5.10;75.90;;;;;;4956599;29;20038;-63
2023/12/05 06:37:22;;;;;;;28.05;15.15;;;5.10;76.20;;;;;;4956593;29;20019;-63
2023/12/05 06:39:48;;;;;;;30.85;15.88;;;5.20;76.50;;;;;;4956039;29;20110;-63
2023/12/05 06:42:15;;;;;;;27.20;14.25;;;5.20;76.20;;;;;;4955888;29;20360;-64
2023/12/05 06:44:42;;;;;;;32.15;16.50;;;5.20;76.20;;;;;;4956154;29;20107;-62
2023/12/05 06:47:08;;;;;;;34.38;17.85;;;5.20;76.10;;;;;;4955894;29;20055;-63
2023/12/05 06:49:35;;;;;;;34.25;17.38;;;5.20;76.00;;;;;;4956408;29;20035;-63
2023/12/05 06:52:02;;;;;;;34.60;17.10;;;5.20;76.00;;;;;;4955942;29;20024;-63
2023/12/05 06:54:29;;;;;;;28.98;15.05;;;5.30;75.90;;;;;;4955855;29;20127;-62
2023/12/05 06:56:55;;;;;;;27.80;14.65;;;5.30;75.80;;;;;;4955822;29;20032;-62
2023/12/05 06:59:22;;;;;;;27.70;15.73;;;5.30;75.70;;;;;;4955720;29;20046;-62
2023/12/05 07:01:48;;;;;;;28.70;15.30;;;5.20;75.70;;;;;;4955821;29;20023;-64
2023/12/05 07:04:14;;;;;;;29.90;15.65;;;5.20;75.30;;;;;;4955721;29;20131;-64
2023/12/05 07:06:40;;;;;;;24.60;14.45;;;5.20;75.70;;;;;;4955632;29;20386;-64
2023/12/05 07:09:07;;;;;;;29.85;16.98;;;5.10;75.80;;;;;;4955667;28;20031;-64
2023/12/05 07:11:33;;;;;;;34.45;18.60;;;5.20;76.00;;;;;;4958779;29;20082;-64
2023/12/05 07:13:59;;;;;;;35.85;20.75;;;5.20;76.10;;;;;;4958884;29;20015;-64
2023/12/05 07:16:25;;;;;;;35.72;20.60;;;5.20;76.00;;;;;;4958713;29;20127;-64
2023/12/05 07:18:54;;;;;;;33.00;19.08;;;5.20;76.00;;;;;;4959336;29;20035;-64
2023/12/05 07:21:21;;;;;;;36.67;22.70;;;5.20;75.90;;;;;;4958687;29;20027;-64
2023/12/05 07:23:47;;;;;;;41.95;24.85;;;5.20;76.20;;;;;;4958750;29;20046;-65
2023/12/05 07:26:14;;;;;;;34.95;21.00;;;5.20;76.10;;;;;;4958622;28;20027;-63
2023/12/05 07:28:44;;;;;;;37.05;21.60;;;5.30;75.90;;;;;;4958654;29;20074;-62
2023/12/05 07:31:11;;;;;;;31.80;17.92;;;5.30;76.20;;;;;;4959109;29;20027;-63
2023/12/05 07:33:37;;;;;;;31.85;16.77;;;5.30;76.10;;;;;;4890370;29;1536782;-62
2023/12/05 07:36:04;;;;;;;26.38;14.05;;;5.30;76.30;;;;;;4959708;29;20066;-62
2023/12/05 07:38:30;;;;;;;25.98;14.68;;;5.40;76.20;;;;;;4959669;28;20512;-62
2023/12/05 07:40:57;;;;;;;26.27;13.68;;;5.40;76.20;;;;;;4959635;29;20063;-62
2023/12/05 07:43:23;;;;;;;24.50;13.52;;;5.40;76.00;;;;;;4959526;29;20047;-63
2023/12/05 07:45:50;;;;;;;29.30;14.98;;;5.50;76.00;;;;;;4959759;29;20035;-62
2023/12/05 07:48:16;;;;;;;25.73;14.65;;;5.50;76.10;;;;;;4959529;29;20028;-63
2023/12/05 07:50:43;;;;;;;26.23;14.30;;;5.50;76.30;;;;;;4959988;29;20031;-63
2023/12/05 07:53:09;;;;;;;25.40;14.25;;;5.50;76.20;;;;;;4959250;29;20035;-62
2023/12/05 07:55:36;;;;;;;23.00;13.30;;;5.60;76.20;;;;;;4959913;29;20106;-63
2023/12/05 07:58:02;;;;;;;29.52;13.50;;;5.60;76.30;;;;;;4959361;29;20031;-62
2023/12/05 08:00:28;;;;;;;26.83;14.73;;;5.60;76.00;;;;;;4959073;29;20031;-64
2023/12/05 08:02:54;;;;;;;32.40;15.75;;;5.60;76.10;;;;;;4957419;29;20031;-64
2023/12/05 08:05:20;;;;;;;35.50;17.92;;;5.60;75.90;;;;;;5235611;23;20014;-74
2023/12/05 08:07:46;;;;;;;37.35;19.00;;;5.70;75.80;;;;;;4958662;29;20042;-74
2023/12/05 08:10:12;;;;;;;33.88;18.73;;;5.70;75.90;;;;;;4959068;29;20360;-74
2023/12/05 08:12:38;;;;;;;31.35;16.50;;;5.80;76.10;;;;;;4959304;29;20023;-74
2023/12/05 08:15:05;;;;;;;33.88;17.25;;;5.80;76.00;;;;;;4959172;29;20089;-74
2023/12/05 08:17:31;;;;;;;35.70;17.90;;;5.80;75.90;;;;;;4940548;29;20035;-74
2023/12/05 08:19:57;;;;;;;31.25;15.02;;;5.90;75.80;;;;;;4939813;29;20019;-74
2023/12/05 08:22:25;;;;;;;39.40;18.38;;;5.90;75.90;;;;;;4938834;29;20032;-74
2023/12/05 08:24:51;;;;;;;32.85;16.45;;;5.90;75.80;;;;;;4939884;29;20024;-74
2023/12/05 08:27:17;;;;;;;33.28;17.08;;;5.90;75.70;;;;;;4939551;29;20030;-74
2023/12/05 08:29:43;;;;;;;29.55;15.10;;;6.00;75.80;;;;;;4939596;29;20015;-74
2023/12/05 08:32:10;;;;;;;35.05;16.42;;;6.00;75.80;;;;;;4939535;29;20356;-74
2023/12/05 08:34:36;;;;;;;32.17;15.95;;;6.00;75.60;;;;;;4939516;29;20031;-74
2023/12/05 08:37:02;;;;;;;27.83;15.05;;;6.10;75.70;;;;;;4939441;29;20027;-74
2023/12/05 08:39:28;;;;;;;27.85;14.18;;;6.10;75.60;;;;;;4939695;29;20318;-74
2023/12/05 08:41:55;;;;;;;30.20;15.10;;;6.10;75.70;;;;;;4939323;29;20042;-74
2023/12/05 08:44:21;;;;;;;31.95;14.27;;;6.10;75.70;;;;;;4939518;29;20035;-74
2023/12/05 08:46:47;;;;;;;28.55;15.10;;;6.20;75.70;;;;;;4939098;29;20393;-73
2023/12/05 08:49:14;;;;;;;32.33;15.52;;;6.20;75.80;;;;;;4939665;29;20027;-74
2023/12/05 08:51:40;;;;;;;26.75;13.98;;;6.20;75.80;;;;;;4939099;29;20038;-74
2023/12/05 08:54:06;;;;;;;31.08;15.32;;;6.20;75.80;;;;;;4939385;29;20038;-74
2023/12/05 08:56:32;;;;;;;30.17;14.50;;;6.30;75.90;;;;;;4938995;29;20110;-74
2023/12/05 08:58:59;;;;;;;29.80;15.20;;;6.30;75.80;;;;;;4939021;29;20055;-75
2023/12/05 09:01:25;;;;;;;30.20;15.50;;;6.40;75.80;;;;;;4939250;29;20368;-74
2023/12/05 09:03:51;;;;;;;32.92;15.80;;;6.40;75.80;;;;;;4938861;29;20031;-74
2023/12/05 09:06:18;;;;;;;29.65;15.57;;;6.40;75.70;;;;;;4921820;29;20361;-73
2023/12/05 09:08:44;;;;;;;30.20;14.95;;;6.40;75.70;;;;;;4939107;29;20027;-74
2023/12/05 09:11:12;;;;;;;29.85;15.38;;;6.50;75.70;;;;;;4938731;29;20034;-75
2023/12/05 09:13:38;;;;;;;30.23;16.23;;;6.50;75.60;;;;;;4939017;29;20027;-74
2023/12/05 09:16:05;;;;;;;29.42;14.98;;;6.60;75.70;;;;;;4938634;29;20030;-75
2023/12/05 09:18:31;;;;;;;25.45;14.65;;;6.60;75.60;;;;;;4938654;29;20036;-74
2023/12/05 09:20:58;;;;;;;29.38;14.45;;;6.60;75.50;;;;;;4938638;29;20024;-74
2023/12/05 09:23:24;;;;;;;27.20;14.65;;;6.60;75.40;;;;;;4938638;29;20039;-75
2023/12/05 09:25:50;;;;;;;28.58;14.85;;;6.60;75.40;;;;;;4938550;29;20050;-75
2023/12/05 09:28:16;;;;;;;24.17;13.77;;;6.70;75.40;;;;;;4938778;29;20322;-74
2023/12/05 09:30:43;;;;;;;24.35;12.48;;;6.70;75.30;;;;;;4938979;29;20027;-75
2023/12/05 09:33:09;;;;;;;24.25;12.13;;;6.70;74.90;;;;;;4938601;29;20027;-74
2023/12/05 09:35:35;;;;;;;26.80;13.55;;;6.70;75.10;;;;;;4938535;29;20019;-75
2023/12/05 09:38:02;;;;;;;24.90;13.68;;;6.80;75.10;;;;;;4938409;29;20039;-75
2023/12/05 09:40:31;;;;;;;28.23;14.55;;;6.80;75.00;;;;;;4938300;29;20046;-74
2023/12/05 09:43:01;;;;;;;26.42;13.82;;;6.80;75.00;;;;;;4938258;29;20042;-74
2023/12/05 09:45:34;;;;;;;30.08;14.75;;;6.90;75.00;;;;;;4938128;29;20047;-74
2023/12/05 09:48:05;;;;;;;24.60;13.68;;;6.90;75.10;;;;;;4938830;29;20056;-75
2023/12/05 09:50:32;;;;;;;29.55;14.80;;;6.90;75.00;;;;;;4938525;29;20511;-75
2023/12/05 09:52:59;;;;;;;26.67;13.57;;;6.90;75.10;;;;;;4938187;29;20024;-74
2023/12/05 09:55:25;;;;;;;25.98;13.98;;;6.90;74.90;;;;;;4938381;29;20134;-75
2023/12/05 09:57:52;;;;;;;31.27;14.93;;;7.00;74.70;;;;;;4938190;29;20038;-75
2023/12/05 10:00:18;;;;;;;27.25;13.93;;;7.00;74.60;;;;;;4938369;29;20028;-75
2023/12/05 10:02:46;;;;;;;23.30;12.52;;;7.00;74.60;;;;;;4938349;29;20031;-74
2023/12/05 10:05:15;;;;;;;26.80;13.40;;;7.00;74.50;;;;;;4937887;29;20035;-75
2023/12/05 10:07:43;;;;;;;29.67;14.23;;;7.00;74.60;;;;;;4919690;29;20513;-75
2023/12/05 10:10:11;;;;;;;29.23;14.85;;;7.10;74.50;;;;;;4919012;29;20024;-75
2023/12/05 10:12:37;;;;;;;33.67;15.70;;;7.10;74.50;;;;;;4919010;29;20039;-74
2023/12/05 10:15:04;;;;;;;27.55;14.38;;;7.10;74.50;;;;;;4919125;29;20068;-74
2023/12/05 10:17:33;;;;;;;33.08;16.02;;;7.10;74.60;;;;;;4918848;29;20027;-74
2023/12/05 10:19:59;;;;;;;29.60;14.90;;;7.10;74.70;;;;;;4918888;29;20068;-74
2023/12/05 10:22:26;;;;;;;30.25;15.38;;;7.10;74.70;;;;;;4918823;29;20137;-74
2023/12/05 10:24:54;;;;;;;31.40;15.88;;;7.10;74.90;;;;;;4918923;29;20036;-74
2023/12/05 10:27:20;;;;;;;27.77;14.27;;;7.10;74.80;;;;;;4918796;29;20453;-74
2023/12/05 10:29:47;;;;;;;45.03;19.33;;;7.10;74.80;;;;;;4919382;29;20067;-75
2023/12/05 10:32:13;;;;;;;29.58;16.08;;;7.20;74.80;;;;;;4919062;29;20031;-75
2023/12/05 10:34:51;;;;;;;31.90;15.40;;;7.20;74.60;;;;;;4918999;29;20028;-74
2023/12/05 10:37:25;;;;;;;30.52;15.52;;;7.20;74.60;;;;;;4918654;29;20039;-75
2023/12/05 10:39:52;;;;;;;27.50;14.02;;;7.20;74.50;;;;;;4918992;29;20039;-74
2023/12/05 10:42:19;;;;;;;32.80;17.17;;;7.20;74.40;;;;;;4918718;29;20032;-75
2023/12/05 10:44:46;;;;;;;29.70;15.75;;;7.20;74.50;;;;;;4902639;29;20032;-75
2023/12/05 10:47:13;;;;;;;30.70;15.70;;;7.20;74.50;;;;;;4922283;29;20458;-74
2023/12/05 10:49:42;;;;;;;33.05;16.80;;;7.20;74.60;;;;;;4922609;29;20024;-75
2023/12/05 10:52:09;;;;;;;33.53;16.70;;;7.20;74.50;;;;;;4922181;29;20043;-75
2023/12/05 10:54:35;;;;;;;29.45;15.25;;;7.30;74.50;;;;;;4922208;29;20442;-75
2023/12/05 10:57:08;;;;;;;25.98;14.43;;;7.20;74.50;;;;;;4922327;29;20032;-74
2023/12/05 10:59:35;;;;;;;31.13;15.32;;;7.30;74.60;;;;;;4922282;29;20032;-74
2023/12/05 11:02:07;;;;;;;28.52;14.93;;;7.20;74.50;;;;;;4922163;29;20039;-74
2023/12/05 11:04:33;;;;;;;28.48;15.35;;;7.20;74.50;;;;;;4922366;29;20043;-75
2023/12/05 11:06:59;;;;;;;24.52;12.90;;;7.30;74.60;;;;;;4921882;29;20140;-75
2023/12/05 11:09:26;;;;;;;26.30;13.65;;;7.30;74.50;;;;;;4921992;29;20055;-74
2023/12/05 11:11:56;;;;;;;24.92;14.45;;;7.30;74.40;;;;;;4921897;29;20028;-75
2023/12/05 11:14:24;;;;;;;28.65;14.18;;;7.30;74.50;;;;;;4922395;29;20020;-75
2023/12/05 11:16:53;;;;;;;29.35;14.75;;;7.30;74.40;;;;;;4921900;29;20422;-74
2023/12/05 11:19:31;;;;;;;26.10;13.65;;;7.30;74.40;;;;;;4921842;29;20020;-75
2023/12/05 11:22:30;;;;;;;28.42;14.38;;;7.30;74.40;;;;;;4922331;29;20062;-74
2023/12/05 11:25:05;;;;;;;25.08;13.75;;;7.30;74.50;;;;;;4922045;29;20039;-74
2023/12/05 11:27:34;;;;;;;27.58;13.82;;;7.30;74.60;;;;;;4922262;29;20036;-75
2023/12/05 11:30:53;;;;;;;26.25;14.45;;;7.30;74.60;;;;;;4922130;29;20024;-74
2023/12/05 11:33:53;;;;;;;24.20;13.48;;;7.30;74.40;;;;;;4918956;29;20032;-74
2023/12/05 11:36:46;;;;;;;26.63;13.10;;;7.40;74.30;;;;;;4921678;29;20074;-74
2023/12/05 11:39:13;;;;;;;24.13;12.75;;;7.40;74.20;;;;;;4922044;29;20028;-75
2023/12/05 11:41:39;;;;;;;27.60;14.25;;;7.40;74.20;;;;;;4921756;29;20028;-74
2023/12/05 11:46:37;;;;;;;25.92;13.43;;;7.40;74.20;;;;;;5225007;23;20054;-67
2023/12/05 11:49:03;;;;;;;23.38;12.93;;;7.40;74.40;;;;;;4978788;28;20022;-67
2023/12/05 11:51:32;;;;;;;26.05;13.48;;;7.40;74.30;;;;;;4978761;28;20102;-67
2023/12/05 11:54:01;;;;;;;21.80;11.75;;;7.40;74.30;;;;;;4961929;28;20035;-67
2023/12/05 11:56:28;;;;;;;24.65;14.98;;;7.40;74.20;;;;;;4977578;28;20023;-67
2023/12/05 12:04:21;;;;;;;22.92;13.05;;;7.40;74.10;;;;;;5272065;23;20051;-68
2023/12/05 12:06:47;;;;;;;22.40;12.45;;;7.40;73.90;;;;;;4959110;29;20082;-67
2023/12/05 12:09:14;;;;;;;27.05;13.93;;;7.40;74.00;;;;;;4959068;29;20028;-67
2023/12/05 12:11:41;;;;;;;24.42;12.90;;;7.40;73.90;;;;;;4959616;29;20035;-67
2023/12/05 12:14:19;;;;;;;24.80;12.48;;;7.40;73.90;;;;;;5239367;23;20062;-68
2023/12/05 12:16:50;;;;;;;25.65;14.35;;;7.40;73.90;;;;;;4959273;29;20036;-67
2023/12/05 12:19:16;;;;;;;28.23;14.98;;;7.40;73.90;;;;;;4959228;29;20039;-67
2023/12/05 12:21:43;;;;;;;26.45;14.30;;;7.40;73.90;;;;;;4959985;29;20031;-68
2023/12/05 12:24:19;;;;;;;20.27;12.15;;;7.40;74.00;;;;;;4958846;29;20039;-67
2023/12/05 12:26:55;;;;;;;21.38;11.98;;;7.40;73.80;;;;;;4958751;29;20107;-68
2023/12/05 12:29:22;;;;;;;21.35;11.93;;;7.40;73.60;;;;;;4954443;29;20078;-68
2023/12/05 12:31:50;;;;;;;22.15;11.52;;;7.50;73.70;;;;;;4959041;28;20031;-68
2023/12/05 12:34:22;;;;;;;20.92;12.13;;;7.50;73.70;;;;;;4958585;29;20076;-68
2023/12/05 12:36:48;;;;;;;22.98;12.57;;;7.50;73.60;;;;;;4958610;29;20118;-68
2023/12/05 12:39:19;;;;;;;21.42;11.85;;;7.50;73.80;;;;;;4958547;29;20042;-69
2023/12/05 12:44:18;;;;;;;23.75;12.18;;;7.60;73.90;;;;;;5267839;23;20506;-69
2023/12/05 12:46:45;;;;;;;20.33;11.23;;;7.60;73.90;;;;;;4977697;28;20027;-69
2023/12/05 12:49:11;;;;;;;22.27;11.75;;;7.60;73.80;;;;;;4977745;28;20026;-68
2023/12/05 12:51:40;;;;;;;23.05;12.05;;;7.60;73.70;;;;;;4978230;28;20023;-68